KBTP/BTP METAR and TAF weather

Enter ICAO airport designator
Station Type Date Time Source
KBTP METAR 2019/02/23 01:56 UTC NOAA

KBTP 230156Z AUTO 00000KT 10SM CLR 01/M04 A3038 RMK AO2 SLP308 T00061044 FZRANO


Station Type Date Time Source
KBTP Decoded METAR 2019/02/23 01:56 UTC NOAA

Butler, Butler County Airport/K W Scholter Field, PA, United States (KBTP) 40-47N 079-57W
Feb 22, 2019 - 08:56 PM EST / 2019.02.23 0156 UTC
Wind: Calm:0
Visibility: 10 mile(s):0
Sky conditions: clear
Temperature: 33.1 F (0.6 C)
Dew Point: 24.1 F (-4.4 C)
Relative Humidity: 69%
Pressure (altimeter): 30.38 in. Hg (1028 hPa)
ob: KBTP 230156Z AUTO 00000KT 10SM CLR 01/M04 A3038 RMK AO2 SLP308 T00061044 FZRANO
cycle: 2

Station Type Date Time Source
KBTP TAF UTC NOAA

Error!


Example: see airport list